Youngsville, North Carolina
Current Conditions -  °F | °C
As of 11:15 AM on Thursday 29 Jan 2015 (Local Time) from KLHZ Reporting Station
Clear Clear  
Wind Chill: 32°   Ceiling: Unl
Heat Index: 37°   Visibility: 10mi
Dew Point: 12°   Wind: 7mph
Humidity: 36%   Direction: 160°SSE
Pressure: 30.33"   Gusts: NA
Location:  36.02°N, 78.47°W
Report Text: KLHZ 291615Z AUTO 16006KT 10SM CLR 03/M11 A3033 RMK AO2
Loading
Personal Weather Stations






























Interactive Weather Map New forecast layout! Learn more

10-Day Weather Forecast

Advertisements
Track Severe Weather on mobile